• Join FlightAware (Why Join?)
  • Login
  • US Flag 
08:18PM EDT


 

Airport Tracker/Info


-or-


 

Live Flight TrackerFlight Track Log ✈ EJA922 ✈ 26-Oct-2013 ✈ KAUS - KFTW

Flight Track Log - Related Links

Times and Time Zones

All times are in EDT time to prevent confusion due to time zone crossing. See the EJA922 flight status page for this flight to view local times or setup timezone preferences in your user account.

Time Position Orientation Groundspeed Altitude Reporting Facility
EDT Latitude Longitude Course Direction KTS MPH feet Rate Location/Type
12:35AM 30.0750 -97.7139 280° West 233 268 4,400  Level Houston Center
12:36AM 30.0858 -97.7844 280° West 249 287 7,500 3,180 Climbing Houston Center
12:37AM 30.1336 -97.8564 308° West 272 313 10,900 2,400 Climbing Houston Center
12:38AM 30.1944 -97.9406 310° West 315 362 12,300 1,740 Climbing Houston Center
12:39AM 30.2606 -98.0317 282° West 363 418 14,500 2,520 Climbing Houston Center
12:40AM 30.3228 -98.1175 310° West 364 419 17,400 2,700 Climbing Houston Center
12:41AM 30.3822 -98.2008 310° West 353 406 19,900 1,980 Climbing Houston Center
12:42AM 30.4436 -98.2881 309° West 347 399 21,500 1,020 Climbing Houston Center
12:43AM 30.5131 -98.3858 310° West 378 435 22,000 240 Climbing Houston Center
12:44AM 30.5856 -98.4892 309° West 402 463 22,000  Level Houston Center
12:45AM 30.6608 -98.5950 310° West 417 480 22,000  Level Houston Center
12:46AM 30.7361 -98.7014 309° West 421 484 22,000  Level Houston Center
12:47AM 30.8169 -98.8022 313° West 424 488 22,000  Level Houston Center
12:48AM 30.9203 -98.8650 332° Northwest 413 475 22,000  Level Houston Center
12:49AM 31.0164 -98.9250 332° Northwest 394 453 22,000  Level Houston Center
12:50AM 31.0908 -98.9725 331° Northwest 373 429 22,000  Level Houston Center
12:51AM 31.1817 -99.0300 332° Northwest 368 423 22,000  Level Houston Center
12:52AM 31.2728 -99.0878 332° Northwest 368 423 22,000  Level Houston Center
12:53AM 31.3639 -99.1456 332° Northwest 368 423 22,000  Level Houston Center
12:54AM 31.4556 -99.2031 332° Northwest 369 425 22,000  Level Houston Center
12:55AM 31.5464 -99.2608 332° Northwest 368 423 22,000  Level Houston Center
12:56AM 31.6394 -99.3208 331° Northwest 372 428 22,000 -180 Level Fort Worth Center
12:57AM 31.7303 -99.3794 331° Northwest 372 428 21,700 -900 Descending Fort Worth Center
12:58AM 31.8169 -99.4350 331° Northwest 358 412 20,200 -1,680 Descending Fort Worth Center
12:59AM 31.9000 -99.4881 332° Northwest 341 392 18,400 -1,740 Descending Fort Worth Center
01:00AM 31.9778 -99.4356 30° Northeast 336 387 16,800 -1,740 Descending Fort Worth Center
01:01AM 32.0094 -99.3339 70° East 330 380 15,000 -1,620 Descending Fort Worth Center
01:02AM 32.0386 -99.2333 71° East 325 374 13,600 -1,020 Descending Fort Worth Center
01:03AM 32.0719 -99.1147 72° East 390 449 13,000 -300 Descending Fort Worth Center
01:04AM 32.1097 -98.9839 71° East 420 483 13,100  Climbing Fort Worth Center
01:05AM 32.1506 -98.8475 70° East 438 504 13,000 -60 Descending Fort Worth Center
01:06AM 32.1892 -98.7139 71° East 434 499 13,000  Level Fort Worth Center
01:07AM 32.2322 -98.5600 72° East 440 506 13,000  Level Fort Worth Center
01:08AM 32.2731 -98.4247 70° East 442 509 13,100  Climbing Fort Worth Center
01:09AM 32.3128 -98.2872 71° East 442 509 13,100  Level Fort Worth Center
01:10AM 32.3486 -98.1536 72° East 428 493 13,100 -840 Level Fort Worth Center
01:11AM 32.3789 -98.0492 71° East 340 391 11,500 -1,620 Descending Fort Worth Center
01:12AM 32.4081 -97.9506 71° East 321 369 9,900 -1,620 Descending Fort Worth Center
01:13AM 32.4344 -97.8564 72° East 305 351 8,300 -1,620 Descending Fort Worth Center
01:14AM 32.4606 -97.7608 72° East 305 351 6,700 -1,680 Descending Fort Worth Center
01:15AM 32.5078 -97.6889 52° Northeast 280 322 5,000 -1,320 Descending Fort Worth Center
01:16AM 32.5706 -97.6500 28° Northeast 256 295 4,100 -480 Descending Fort Worth Center
01:17AM 32.6331 -97.6128 27° Northeast 252 290 4,100 -60 Level Fort Worth Center
01:18AM 32.6964 -97.5753 26° Northeast 255 293 4,000  Descending Fort Worth Center
01:19AM 32.7486 -97.5442 27° Northeast 214 246 4,100 -480 Climbing Fort Worth Center
01:20AM 32.8028 -97.5122 26° Northeast 204 235 3,100 -540 Descending Fort Worth Center
01:21AM 32.8567 -97.4822 25° Northeast 214 246 3,100  Level Fort Worth Center
01:22AM 32.9089 -97.4531 25° Northeast 208 239 3,100 -60 Level Fort Worth Center
01:23AM 32.9611 -97.4222 26° Northeast 210 242 3,000 -180 Descending Fort Worth Center
01:24AM 32.9347 -97.3800 127° Southeast 205 236 2,800 -600 Descending Fort Worth Center
01:25AM 32.8861 -97.3722 172° South 171 197 1,900 -840 Descending Fort Worth Center
01:26AM 32.8503 -97.3664 172° South 132 152 1,200 -600 Descending Fort Worth Center
01:27AM 32.8147 -97.3603 172° South 128 147 700 -540 Descending Fort Worth Center